Terminal Aerodrome Forecast
Issued by NWS Boise, ID

Home | Current Version | Previous Version | Text Only | Print | Product List | Glossary On
Versions: 1 2 3 4 5 6 7 8 9 10 11 12 13
000
FTUS45 KBOI 300524
TAFBOI
TAF
KBOI 300524Z 3006/3106 13008KT P6SM BKN040
     FM301300 31020G30KT P6SM -RA OVC030
      TEMPO 3013/3015 31035G45KT
     FM301500 31028G38KT 3SM -RA OVC020
     FM302300 32028G38KT P6SM VCSH OVC040
     FM310300 30015KT P6SM SCT040 BKN100=

USA.gov is the U.S. government's official web portal to all federal, state and local government web resources and services.